Island Fox — FOX — position and weather

sailwx.info

Track history (hours):
 
Tides and Currents Weather Stations Pressure Air Temp Water Temp Dewpoint Dewpoint Depression Visibility Wind Speed Wind Dir Waves Ship Positions

Island Fox

Last reported at 2017-Dec-13 02:17 UTC. Time now 2018-Jan-18 07:54 UTC.
Position N 34°09' W 119°12'.
Warning: this ship's position is 36 days out of date.

Length 28 m; draft 3 m.

Type: Military. MMSI: 368926007.

Date/timePositionNaut miles runAvg speedWind from/ knotsBaromVisibWave heightAir tempDewpointWater temp
2017-Dec-13 02:17N 34°09' W 119°12'1 2.2
2017-Dec-13 01:59N 34°09' W 119°13'712.9
2017-Dec-13 01:29N 34°03' W 119°16'612.6
2017-Dec-13 01:00N 33°57' W 119°18'612.7
2017-Dec-13 00:30N 33°51' W 119°20'612.7
2017-Dec-13 00:00N 33°44' W 119°22'613.0
2017-Dec-12 23:30N 33°38' W 119°24'713.1
2017-Dec-12 23:00N 33°32' W 119°27'713.1
2017-Dec-12 22:30N 33°26' W 119°30'612.8
2017-Dec-12 22:00N 33°20' W 119°32'0 0.2
2017-Dec-12 20:19N 33°20' W 119°32'0 0.2
2017-Dec-12 19:44N 33°20' W 119°31'0 0.3
2017-Dec-12 19:30N 33°19' W 119°31'0 0.4
2017-Dec-12 19:00N 33°19' W 119°31'0 0.5
2017-Dec-12 18:31N 33°19' W 119°31'0 0.5
2017-Dec-12 18:00N 33°19' W 119°31'0 0.4
2017-Dec-12 16:59N 33°19' W 119°30'1 1.1
2017-Dec-12 16:12N 33°20' W 119°30'2 5.8
2017-Dec-12 15:50N 33°22' W 119°31'2 4.4
2017-Dec-12 15:20N 33°24' W 119°32'2 5.9
2017-Dec-12 15:00N 33°26' W 119°32'1 1.3
2017-Dec-12 14:30N 33°27' W 119°32'2 4.5
2017-Dec-12 14:00N 33°28' W 119°35'2 4.3
2017-Dec-12 13:30N 33°27' W 119°32'4 8.1
2017-Dec-12 13:00N 33°30' W 119°31'4 8.0
2017-Dec-12 12:30N 33°34' W 119°29'4 8.0
2017-Dec-12 12:00N 33°38' W 119°28'4 8.0
2017-Dec-12 11:30N 33°42' W 119°26'4 7.9
2017-Dec-12 11:00N 33°45' W 119°24'4 8.0
2017-Dec-12 10:28N 33°49' W 119°22'4 8.2
2017-Dec-12 10:00N 33°53' W 119°20'4 8.3
2017-Dec-12 09:29N 33°57' W 119°18'4 8.0
2017-Dec-12 08:59N 34°01' W 119°17'4 8.1
2017-Dec-12 08:30N 34°04' W 119°15'4 8.1
2017-Dec-12 08:00N 34°08' W 119°13'1 2.9
2017-Dec-12 07:30N 34°09' W 119°12'0 0.0
2017-Dec-12 07:00N 34°09' W 119°12'  
2017-Dec-09 00:28N 34°09' W 119°12'1 2.1
2017-Dec-08 23:59N 34°08' W 119°13'612.7
2017-Dec-08 23:30N 34°02' W 119°15'612.5
2017-Dec-08 23:00N 33°57' W 119°18'612.6
2017-Dec-08 22:29N 33°51' W 119°22'612.5
2017-Dec-08 22:00N 33°46' W 119°26'612.5
2017-Dec-08 21:30N 33°40' W 119°29'612.6
2017-Dec-08 21:00N 33°34' W 119°32'612.6
2017-Dec-08 20:30N 33°28' W 119°34'612.4
2017-Dec-08 20:00N 33°23' W 119°37'612.3
2017-Dec-08 19:30N 33°17' W 119°39'6 9.5
2017-Dec-08 18:52N 33°13' W 119°34'0 0.4
2017-Dec-08 17:57N 33°13' W 119°33'8 3.1
2017-Dec-08 15:22N 33°13' W 119°23'11 8.3
2017-Dec-08 14:01N 33°20' W 119°34'0 5.7
2017-Dec-08 14:00N 33°20' W 119°34'5 9.7
2017-Dec-08 13:30N 33°24' W 119°31'510.2
2017-Dec-08 13:00N 33°29' W 119°29'510.0
2017-Dec-08 12:30N 33°34' W 119°27'5 9.6
2017-Dec-08 12:00N 33°38' W 119°25'5 9.9
2017-Dec-08 11:30N 33°43' W 119°23'510.0
2017-Dec-08 11:00N 33°48' W 119°21'610.6
2017-Dec-08 10:27N 33°53' W 119°18'510.4
2017-Dec-08 10:00N 33°57' W 119°17'510.3
2017-Dec-08 09:28N 34°03' W 119°15'5 9.8
2017-Dec-08 08:59N 34°07' W 119°14'2 4.3
2017-Dec-08 08:30N 34°09' W 119°12'0 0.0
2017-Dec-08 08:00N 34°09' W 119°12'0 0.0
2017-Dec-08 07:30N 34°09' W 119°12'0 0.0
2017-Dec-08 07:00N 34°09' W 119°12'0 0.0
2017-Dec-08 06:30N 34°09' W 119°12'  
Track history (hours):
 
Tides and Currents Weather Stations Pressure Air Temp Water Temp Dewpoint Dewpoint Depression Visibility Wind Speed Wind Dir Waves Ship Positions

Island Fox

Last reported at 2017-Dec-13 02:17 UTC. Time now 2018-Jan-18 07:54 UTC.
Position N 34°09' W 119°12'.
Warning: this ship's position is 36 days out of date.

Length 28 m; draft 3 m.

Type: Military. MMSI: 368926007.

Date/timePositionNaut miles runAvg speedWind from/ knotsBaromVisibWave heightAir tempDewpointWater temp
2017-Dec-13 02:17N 34°09' W 119°12'1 2.2
2017-Dec-13 01:59N 34°09' W 119°13'712.9
2017-Dec-13 01:29N 34°03' W 119°16'612.6
2017-Dec-13 01:00N 33°57' W 119°18'612.7
2017-Dec-13 00:30N 33°51' W 119°20'612.7
2017-Dec-13 00:00N 33°44' W 119°22'613.0
2017-Dec-12 23:30N 33°38' W 119°24'713.1
2017-Dec-12 23:00N 33°32' W 119°27'713.1
2017-Dec-12 22:30N 33°26' W 119°30'612.8
2017-Dec-12 22:00N 33°20' W 119°32'0 0.2
2017-Dec-12 20:19N 33°20' W 119°32'0 0.2
2017-Dec-12 19:44N 33°20' W 119°31'0 0.3
2017-Dec-12 19:30N 33°19' W 119°31'0 0.4
2017-Dec-12 19:00N 33°19' W 119°31'0 0.5
2017-Dec-12 18:31N 33°19' W 119°31'0 0.5
2017-Dec-12 18:00N 33°19' W 119°31'0 0.4
2017-Dec-12 16:59N 33°19' W 119°30'1 1.1
2017-Dec-12 16:12N 33°20' W 119°30'2 5.8
2017-Dec-12 15:50N 33°22' W 119°31'2 4.4
2017-Dec-12 15:20N 33°24' W 119°32'2 5.9
2017-Dec-12 15:00N 33°26' W 119°32'1 1.3
2017-Dec-12 14:30N 33°27' W 119°32'2 4.5
2017-Dec-12 14:00N 33°28' W 119°35'2 4.3
2017-Dec-12 13:30N 33°27' W 119°32'4 8.1
2017-Dec-12 13:00N 33°30' W 119°31'4 8.0
2017-Dec-12 12:30N 33°34' W 119°29'4 8.0
2017-Dec-12 12:00N 33°38' W 119°28'4 8.0
2017-Dec-12 11:30N 33°42' W 119°26'4 7.9
2017-Dec-12 11:00N 33°45' W 119°24'4 8.0
2017-Dec-12 10:28N 33°49' W 119°22'4 8.2
2017-Dec-12 10:00N 33°53' W 119°20'4 8.3
2017-Dec-12 09:29N 33°57' W 119°18'4 8.0
2017-Dec-12 08:59N 34°01' W 119°17'4 8.1
2017-Dec-12 08:30N 34°04' W 119°15'4 8.1
2017-Dec-12 08:00N 34°08' W 119°13'1 2.9
2017-Dec-12 07:30N 34°09' W 119°12'0 0.0
2017-Dec-12 07:00N 34°09' W 119°12'  
2017-Dec-09 00:28N 34°09' W 119°12'1 2.1
2017-Dec-08 23:59N 34°08' W 119°13'612.7
2017-Dec-08 23:30N 34°02' W 119°15'612.5
2017-Dec-08 23:00N 33°57' W 119°18'612.6
2017-Dec-08 22:29N 33°51' W 119°22'612.5
2017-Dec-08 22:00N 33°46' W 119°26'612.5
2017-Dec-08 21:30N 33°40' W 119°29'612.6
2017-Dec-08 21:00N 33°34' W 119°32'612.6
2017-Dec-08 20:30N 33°28' W 119°34'612.4
2017-Dec-08 20:00N 33°23' W 119°37'612.3
2017-Dec-08 19:30N 33°17' W 119°39'6 9.5
2017-Dec-08 18:52N 33°13' W 119°34'0 0.4
2017-Dec-08 17:57N 33°13' W 119°33'8 3.1
2017-Dec-08 15:22N 33°13' W 119°23'11 8.3
2017-Dec-08 14:01N 33°20' W 119°34'0 5.7
2017-Dec-08 14:00N 33°20' W 119°34'5 9.7
2017-Dec-08 13:30N 33°24' W 119°31'510.2
2017-Dec-08 13:00N 33°29' W 119°29'510.0
2017-Dec-08 12:30N 33°34' W 119°27'5 9.6
2017-Dec-08 12:00N 33°38' W 119°25'5 9.9
2017-Dec-08 11:30N 33°43' W 119°23'510.0
2017-Dec-08 11:00N 33°48' W 119°21'610.6
2017-Dec-08 10:27N 33°53' W 119°18'510.4
2017-Dec-08 10:00N 33°57' W 119°17'510.3
2017-Dec-08 09:28N 34°03' W 119°15'5 9.8
2017-Dec-08 08:59N 34°07' W 119°14'2 4.3
2017-Dec-08 08:30N 34°09' W 119°12'0 0.0
2017-Dec-08 08:00N 34°09' W 119°12'0 0.0
2017-Dec-08 07:30N 34°09' W 119°12'0 0.0
2017-Dec-08 07:00N 34°09' W 119°12'0 0.0
2017-Dec-08 06:30N 34°09' W 119°12'  

Dump ship's entire track history